createdAt,value
2023-04-16T00:01:34.795Z,101156.00
2023-04-16T00:04:03.262Z,101159.44
2023-04-16T00:06:30.238Z,101136.97
2023-04-16T00:08:56.760Z,101159.00
2023-04-16T00:11:23.445Z,101160.19
2023-04-16T00:13:49.944Z,101130.84
2023-04-16T00:16:16.529Z,101157.66
2023-04-16T00:18:43.091Z,101168.09
2023-04-16T00:21:11.025Z,101169.47
2023-04-16T00:23:37.888Z,101173.38
2023-04-16T00:26:04.775Z,101165.38
2023-04-16T00:28:31.315Z,101172.94
2023-04-16T00:30:58.261Z,101172.63
2023-04-16T00:33:24.816Z,101171.09
2023-04-16T00:35:51.412Z,101164.97
2023-04-16T00:38:19.517Z,101179.19
2023-04-16T00:40:47.270Z,101166.56
2023-04-16T00:43:21.620Z,101161.50
2023-04-16T00:45:48.929Z,101168.63
2023-04-16T00:48:15.857Z,101171.09
2023-04-16T00:50:42.575Z,101170.44
2023-04-16T00:53:09.499Z,101158.34
2023-04-16T00:55:39.431Z,101172.78
2023-04-16T00:58:06.017Z,101172.88
2023-04-16T01:00:32.677Z,101178.97
2023-04-16T01:02:59.697Z,101185.19
2023-04-16T01:05:26.643Z,101178.22
2023-04-16T01:07:53.346Z,101162.81
2023-04-16T01:10:20.063Z,101182.56
2023-04-16T01:12:47.947Z,101186.13
2023-04-16T01:15:14.463Z,101187.91
2023-04-16T01:17:41.180Z,101179.31
2023-04-16T01:20:08.237Z,101192.06
2023-04-16T01:22:36.124Z,101183.84
2023-04-16T01:25:02.790Z,101192.69
2023-04-16T01:27:29.419Z,101173.75
2023-04-16T01:29:55.941Z,101190.56
2023-04-16T01:32:31.901Z,101189.44
2023-04-16T01:34:58.601Z,101190.88
2023-04-16T01:37:25.137Z,101198.34
2023-04-16T01:39:53.415Z,101176.38
2023-04-16T01:42:19.917Z,101192.56
2023-04-16T01:44:47.164Z,101192.16
2023-04-16T01:47:13.761Z,101192.06
2023-04-16T01:49:40.367Z,101191.13
2023-04-16T01:52:07.151Z,101188.16
2023-04-16T01:54:33.774Z,101199.53
2023-04-16T01:57:01.700Z,101168.28
2023-04-16T01:59:28.313Z,101200.22
2023-04-16T02:01:55.618Z,101197.00
2023-04-16T02:04:22.316Z,101203.41
2023-04-16T02:06:48.866Z,101199.19
2023-04-16T02:09:15.503Z,101209.81
2023-04-16T02:11:42.060Z,101200.56
2023-04-16T02:14:10.036Z,101197.31
2023-04-16T02:16:36.614Z,101200.06
2023-04-16T02:19:19.596Z,101199.31
2023-04-16T02:21:46.272Z,101197.31
2023-04-16T02:24:12.823Z,101195.13
2023-04-16T02:26:40.319Z,101192.25
2023-04-16T02:29:14.368Z,101193.84
2023-04-16T02:31:44.689Z,101189.53
2023-04-16T02:34:12.706Z,101201.22
2023-04-16T02:36:40.425Z,101186.56
2023-04-16T02:39:07.084Z,101202.34
2023-04-16T02:41:33.879Z,101200.06
2023-04-16T02:44:00.534Z,101196.56
2023-04-16T02:46:28.526Z,101169.84
2023-04-16T02:48:55.081Z,101201.09
2023-04-16T02:51:21.612Z,101192.25
2023-04-16T02:53:48.121Z,101196.56
2023-04-16T02:56:14.718Z,101195.19
2023-04-16T02:58:41.289Z,101193.94
2023-04-16T03:01:07.841Z,101201.41
2023-04-16T03:03:35.845Z,101200.22
2023-04-16T03:06:02.400Z,101194.03
2023-04-16T03:08:28.982Z,101196.56
2023-04-16T03:10:55.495Z,101195.53
2023-04-16T03:13:22.100Z,101193.00
2023-04-16T03:15:49.308Z,101208.13
2023-04-16T03:18:16.168Z,101193.81
2023-04-16T03:20:44.093Z,101194.44
2023-04-16T03:23:11.400Z,101197.81
2023-04-16T03:25:38.169Z,101190.78
2023-04-16T03:28:04.764Z,101194.03
2023-04-16T03:30:32.636Z,101205.72
2023-04-16T03:32:59.187Z,101202.25
2023-04-16T03:35:25.819Z,101201.41
2023-04-16T03:37:53.686Z,101205.63
2023-04-16T03:40:20.220Z,101203.09
2023-04-16T03:42:46.761Z,101213.09
2023-04-16T03:45:13.265Z,101203.41
2023-04-16T03:47:40.036Z,101211.50
2023-04-16T03:50:08.898Z,101199.00
2023-04-16T03:52:36.167Z,101215.31
2023-04-16T03:55:05.086Z,101214.88
2023-04-16T03:57:31.788Z,101217.53
2023-04-16T04:00:05.612Z,101211.19
2023-04-16T04:02:40.996Z,101218.38
2023-04-16T04:05:13.849Z,101211.75
2023-04-16T04:07:41.057Z,101215.00
2023-04-16T04:10:10.386Z,101222.88
2023-04-16T04:12:40.074Z,101234.25
2023-04-16T04:15:07.905Z,101229.19
2023-04-16T04:17:34.467Z,101239.28
2023-04-16T04:20:02.260Z,101234.88
2023-04-16T04:22:30.824Z,101238.34
2023-04-16T04:24:57.396Z,101241.63
2023-04-16T04:27:27.180Z,101219.91
2023-04-16T04:29:53.720Z,101244.13
2023-04-16T04:32:21.851Z,101242.91
2023-04-16T04:34:49.130Z,101234.59
2023-04-16T04:37:15.754Z,101251.75
2023-04-16T04:39:43.768Z,101254.38
2023-04-16T04:42:12.339Z,101238.34
2023-04-16T04:44:40.415Z,101259.31
2023-04-16T04:47:07.984Z,101256.78
2023-04-16T04:49:34.921Z,101251.50
2023-04-16T04:52:03.270Z,101253.00
2023-04-16T04:54:32.002Z,101252.25
2023-04-16T04:56:58.933Z,101248.03
2023-04-16T04:59:25.773Z,101237.41
2023-04-16T05:01:53.940Z,101255.09
2023-04-16T05:04:20.549Z,101242.91
2023-04-16T05:06:47.082Z,101248.38
2023-04-16T05:09:13.605Z,101254.47
2023-04-16T05:11:42.006Z,101253.53
2023-04-16T05:14:08.710Z,101243.09
2023-04-16T05:16:36.377Z,101254.25
2023-04-16T05:19:04.599Z,101251.50
2023-04-16T05:21:31.325Z,101251.94
2023-04-16T05:23:59.060Z,101253.19
2023-04-16T05:26:25.605Z,101262.69
2023-04-16T05:28:52.290Z,101258.13
2023-04-16T05:31:18.882Z,101263.09
2023-04-16T05:33:45.629Z,101265.59
2023-04-16T05:36:13.504Z,101256.88
2023-04-16T05:38:39.991Z,101262.44
2023-04-16T05:41:06.518Z,101254.66
2023-04-16T05:43:33.158Z,101260.56
2023-04-16T05:45:59.701Z,101276.97
2023-04-16T05:48:26.265Z,101273.28
2023-04-16T05:50:52.817Z,101276.88
2023-04-16T05:53:20.692Z,101260.22
2023-04-16T05:55:47.554Z,101275.94
2023-04-16T05:58:14.091Z,101280.34
2023-04-16T06:00:40.660Z,101285.38
2023-04-16T06:03:07.394Z,101296.66
2023-04-16T06:05:34.213Z,101301.31
2023-04-16T06:08:00.782Z,101299.63
2023-04-16T06:10:28.703Z,101291.94
2023-04-16T06:12:55.224Z,101296.78
2023-04-16T06:15:21.718Z,101290.66
2023-04-16T06:17:49.259Z,101290.03
2023-04-16T06:20:16.088Z,101298.47
2023-04-16T06:22:42.677Z,101299.94
2023-04-16T06:25:10.296Z,101296.88
2023-04-16T06:27:38.186Z,101282.34
2023-04-16T06:30:06.350Z,101308.56
2023-04-16T06:32:32.898Z,101311.44
2023-04-16T06:34:59.627Z,101321.03
2023-04-16T06:37:26.192Z,101322.38
2023-04-16T06:39:52.721Z,101318.06
2023-04-16T06:42:20.117Z,101318.91
2023-04-16T06:44:48.023Z,101321.31
2023-04-16T06:47:14.595Z,101325.00
2023-04-16T06:49:41.364Z,101315.69
2023-04-16T06:52:07.989Z,101331.22
2023-04-16T06:54:34.591Z,101308.38
2023-04-16T06:57:01.180Z,101333.88
2023-04-16T06:59:27.959Z,101310.38
2023-04-16T07:01:56.417Z,101333.75
2023-04-16T07:04:23.795Z,101336.06
2023-04-16T07:06:50.349Z,101323.31
2023-04-16T07:09:16.846Z,101337.53
2023-04-16T07:11:44.632Z,101344.38
2023-04-16T07:14:11.267Z,101344.16
2023-04-16T07:16:38.036Z,101334.78
2023-04-16T07:19:06.033Z,101345.66
2023-04-16T07:21:32.871Z,101335.31
2023-04-16T07:23:59.358Z,101347.94
2023-04-16T07:26:25.888Z,101349.41
2023-04-16T07:28:52.414Z,101348.97
2023-04-16T07:31:19.630Z,101349.59
2023-04-16T07:33:46.262Z,101341.84
2023-04-16T07:36:14.074Z,101344.78
2023-04-16T07:38:40.535Z,101333.66
2023-04-16T07:41:07.048Z,101336.69
2023-04-16T07:43:33.510Z,101341.66
2023-04-16T07:46:00.011Z,101339.41
2023-04-16T07:48:26.748Z,101345.31
2023-04-16T07:50:53.302Z,101348.44
2023-04-16T07:53:21.199Z,101352.53
2023-04-16T07:55:47.754Z,101345.16
2023-04-16T07:58:14.414Z,101348.41
2023-04-16T08:00:40.898Z,101351.78
2023-04-16T08:03:07.660Z,101358.50
2023-04-16T08:05:34.354Z,101368.13
2023-04-16T08:08:00.858Z,101370.41
2023-04-16T08:10:28.823Z,101369.34
2023-04-16T08:12:55.327Z,101373.50
2023-04-16T08:15:21.831Z,101367.66
2023-04-16T08:17:48.651Z,101376.97
2023-04-16T08:20:17.629Z,101380.00
2023-04-16T08:22:45.844Z,101380.22
2023-04-16T08:25:12.345Z,101377.72
2023-04-16T08:27:40.387Z,101387.19
2023-04-16T08:30:08.137Z,101396.78
2023-04-16T08:32:34.933Z,101349.91
2023-04-16T08:35:01.896Z,101393.59
2023-04-16T08:37:28.458Z,101396.13
2023-04-16T08:39:55.059Z,101397.81
2023-04-16T08:42:28.938Z,101388.44
2023-04-16T08:45:06.391Z,101407.81
2023-04-16T08:47:35.087Z,101408.47
2023-04-16T08:50:03.594Z,101412.44
2023-04-16T08:52:31.199Z,101398.13
2023-04-16T08:55:03.642Z,101415.59
2023-04-16T08:57:37.160Z,101403.44
2023-04-16T09:00:07.778Z,101424.50
2023-04-16T09:02:35.009Z,101432.69
2023-04-16T09:05:05.277Z,101426.41
2023-04-16T09:07:33.303Z,101427.81
2023-04-16T09:10:00.581Z,101422.44
2023-04-16T09:12:27.414Z,101423.88
2023-04-16T09:14:54.733Z,101427.00
2023-04-16T09:17:22.677Z,101417.66
2023-04-16T09:19:49.321Z,101424.16
2023-04-16T09:22:16.037Z,101425.63
2023-04-16T09:24:42.547Z,101412.41
2023-04-16T09:27:09.156Z,101427.47
2023-04-16T09:29:36.656Z,101401.63
2023-04-16T09:32:04.187Z,101429.91
2023-04-16T09:34:33.559Z,101436.91
2023-04-16T09:37:15.597Z,101436.53
2023-04-16T09:39:42.720Z,101438.91
2023-04-16T09:42:09.301Z,101433.16
2023-04-16T09:44:36.660Z,101443.13
2023-04-16T09:47:06.664Z,101444.47
2023-04-16T09:49:40.813Z,101436.03
2023-04-16T09:52:12.435Z,101451.44
2023-04-16T09:54:39.039Z,101440.84
2023-04-16T09:57:05.701Z,101450.09
2023-04-16T09:59:32.545Z,101446.63
2023-04-16T10:02:14.623Z,101451.06
2023-04-16T10:04:49.270Z,101454.09
2023-04-16T10:07:16.853Z,101448.41
2023-04-16T10:09:43.574Z,101453.63
2023-04-16T10:12:10.597Z,101460.59
2023-04-16T10:14:37.117Z,101444.59
2023-04-16T10:17:04.518Z,101461.19
2023-04-16T10:19:31.938Z,101463.47
2023-04-16T10:21:59.918Z,101459.03
2023-04-16T10:24:26.470Z,101468.53
2023-04-16T10:26:53.325Z,101433.28
2023-04-16T10:29:20.448Z,101455.41
2023-04-16T10:31:48.202Z,101465.03
2023-04-16T10:34:15.763Z,101462.88
2023-04-16T10:36:43.089Z,101462.75
2023-04-16T10:39:14.750Z,101466.47
2023-04-16T10:41:43.611Z,101470.47
2023-04-16T10:44:10.781Z,101470.47
2023-04-16T10:46:38.962Z,101470.31
2023-04-16T10:49:13.696Z,101468.78
2023-04-16T10:51:40.934Z,101469.25
2023-04-16T10:54:23.200Z,101470.22
2023-04-16T10:56:50.341Z,101468.31
2023-04-16T10:59:18.668Z,101465.75
2023-04-16T11:01:46.786Z,101468.88
2023-04-16T11:04:36.095Z,101471.88
2023-04-16T11:07:05.941Z,101470.88
2023-04-16T11:09:53.553Z,101467.97
2023-04-16T11:12:21.798Z,101444.97
2023-04-16T11:14:50.101Z,101460.06
2023-04-16T11:17:17.166Z,101456.84
2023-04-16T11:19:43.881Z,101441.91
2023-04-16T11:22:13.026Z,101464.03
2023-04-16T11:24:39.522Z,101450.59
2023-04-16T11:27:07.956Z,101463.91
2023-04-16T11:29:34.607Z,101428.31
2023-04-16T11:32:01.335Z,101446.47
2023-04-16T11:34:27.871Z,101461.41
2023-04-16T11:36:54.425Z,101468.41
2023-04-16T11:39:20.916Z,101471.66
2023-04-16T11:41:49.476Z,101452.44
2023-04-16T11:44:22.239Z,101470.53
2023-04-16T11:46:49.389Z,101454.53
2023-04-16T11:49:16.116Z,101478.09
2023-04-16T11:51:43.660Z,101475.78
2023-04-16T11:54:17.892Z,101477.63
2023-04-16T11:56:46.583Z,101461.84
2023-04-16T11:59:14.592Z,101443.47
2023-04-16T12:01:46.863Z,101464.00
2023-04-16T12:04:14.304Z,101461.81
2023-04-16T12:06:41.056Z,101481.69
2023-04-16T12:09:23.515Z,101471.13
2023-04-16T12:11:50.309Z,101478.19
2023-04-16T12:14:16.864Z,101481.44
2023-04-16T12:16:44.915Z,101473.94
2023-04-16T12:19:12.654Z,101484.66
2023-04-16T12:21:41.127Z,101479.91
2023-04-16T12:24:09.413Z,101487.19
2023-04-16T12:26:37.923Z,101487.66
2023-04-16T12:29:18.664Z,101460.56
2023-04-16T12:31:46.786Z,101462.56
2023-04-16T12:34:13.830Z,101476.38
2023-04-16T12:36:40.535Z,101485.50
2023-04-16T12:39:07.426Z,101487.50
2023-04-16T12:41:36.872Z,101488.84
2023-04-16T12:44:05.004Z,101482.88
2023-04-16T12:46:31.578Z,101490.50
2023-04-16T12:48:59.729Z,101485.63
2023-04-16T12:51:26.459Z,101490.09
2023-04-16T12:53:53.032Z,101482.72
2023-04-16T12:56:19.634Z,101485.16
2023-04-16T12:58:46.162Z,101476.41
2023-04-16T13:01:12.694Z,101476.09
2023-04-16T13:03:39.490Z,101459.69
2023-04-16T13:06:08.124Z,101470.97
2023-04-16T13:08:34.640Z,101491.13
2023-04-16T13:11:01.208Z,101481.59
2023-04-16T13:13:27.867Z,101490.47
2023-04-16T13:15:54.515Z,101485.88
2023-04-16T13:18:21.088Z,101470.19
2023-04-16T13:20:47.618Z,101480.44
2023-04-16T13:23:15.588Z,101478.94
2023-04-16T13:25:42.124Z,101466.91
2023-04-16T13:28:08.677Z,101479.97
2023-04-16T13:30:35.312Z,101440.91
2023-04-16T13:33:02.329Z,101462.69
2023-04-16T13:35:29.802Z,101475.97
2023-04-16T13:37:56.348Z,101469.16
2023-04-16T13:40:24.266Z,101414.56
2023-04-16T13:42:52.119Z,101457.81
2023-04-16T13:45:19.041Z,101468.31
2023-04-16T13:47:45.897Z,101467.34
2023-04-16T13:50:12.717Z,101472.53
2023-04-16T13:52:39.547Z,101471.44
2023-04-16T13:55:06.963Z,101474.38
2023-04-16T13:57:36.636Z,101476.59
2023-04-16T14:00:03.679Z,101472.28
2023-04-16T14:02:31.523Z,101477.59
2023-04-16T14:04:58.217Z,101468.38
2023-04-16T14:07:24.879Z,101473.69
2023-04-16T14:09:51.458Z,101482.06
2023-04-16T14:12:18.049Z,101470.84
2023-04-16T14:14:45.963Z,101473.94
2023-04-16T14:17:12.505Z,101479.13
2023-04-16T14:19:39.085Z,101458.09
2023-04-16T14:22:06.973Z,101477.19
2023-04-16T14:24:35.260Z,101473.97
2023-04-16T14:27:01.825Z,101476.91
2023-04-16T14:29:28.402Z,101468.72
2023-04-16T14:31:56.284Z,101468.50
2023-04-16T14:34:23.154Z,101472.78
2023-04-16T14:36:50.259Z,101470.13
2023-04-16T14:39:16.776Z,101470.25
2023-04-16T14:41:43.350Z,101471.50
2023-04-16T14:44:10.015Z,101466.75
2023-04-16T14:46:36.573Z,101474.53
2023-04-16T14:49:04.989Z,101477.63
2023-04-16T14:51:31.794Z,101483.53
2023-04-16T14:53:58.342Z,101483.66
2023-04-16T14:56:24.872Z,101476.81
2023-04-16T14:58:51.432Z,101480.56
2023-04-16T15:01:18.033Z,101477.38
2023-04-16T15:03:44.813Z,101483.94
2023-04-16T15:06:13.837Z,101474.00
2023-04-16T15:08:40.444Z,101481.28
2023-04-16T15:11:07.083Z,101468.97
2023-04-16T15:13:33.607Z,101477.25
2023-04-16T15:16:00.838Z,101470.72
2023-04-16T15:18:27.636Z,101480.09
2023-04-16T15:20:54.412Z,101474.66
2023-04-16T15:23:22.466Z,101474.94
2023-04-16T15:25:48.976Z,101470.44
2023-04-16T15:28:15.592Z,101476.56
2023-04-16T15:30:42.366Z,101465.94
2023-04-16T15:33:09.393Z,101469.44
2023-04-16T15:35:36.279Z,101474.28
2023-04-16T15:38:02.766Z,101470.66
2023-04-16T15:40:31.083Z,101470.41
2023-04-16T15:42:57.695Z,101464.50
2023-04-16T15:45:24.236Z,101467.09
2023-04-16T15:47:50.831Z,101465.25
2023-04-16T15:50:17.499Z,101467.09
2023-04-16T15:52:44.012Z,101459.75
2023-04-16T15:55:10.589Z,101473.50
2023-04-16T15:57:38.646Z,101468.16
2023-04-16T16:00:07.411Z,101468.69
2023-04-16T16:02:34.421Z,101454.44
2023-04-16T16:05:01.190Z,101469.16
2023-04-16T16:07:27.724Z,101443.78
2023-04-16T16:09:54.297Z,101471.75
2023-04-16T16:12:20.806Z,101471.34
2023-04-16T16:14:48.651Z,101470.25
2023-04-16T16:17:15.172Z,101471.09
2023-04-16T16:19:41.665Z,101456.63
2023-04-16T16:22:08.177Z,101466.97
2023-04-16T16:24:34.706Z,101475.19
2023-04-16T16:27:01.245Z,101471.28
2023-04-16T16:29:27.766Z,101475.88
2023-04-16T16:31:55.715Z,101476.16
2023-04-16T16:34:22.312Z,101472.66
2023-04-16T16:36:48.934Z,101480.00
2023-04-16T16:39:15.510Z,101480.13
2023-04-16T16:41:42.068Z,101480.28
2023-04-16T16:44:08.716Z,101469.50
2023-04-16T16:46:35.241Z,101478.53
2023-04-16T16:49:03.190Z,101486.13
2023-04-16T16:51:29.654Z,101491.50
2023-04-16T16:53:56.193Z,101489.97
2023-04-16T16:56:22.674Z,101485.59
2023-04-16T16:58:49.166Z,101498.97
2023-04-16T17:01:15.795Z,101491.94
2023-04-16T17:03:42.463Z,101489.59
2023-04-16T17:06:10.456Z,101497.44
2023-04-16T17:08:37.015Z,101505.03
2023-04-16T17:11:03.954Z,101502.16
2023-04-16T17:13:30.547Z,101495.44
2023-04-16T17:15:57.061Z,101507.25
2023-04-16T17:18:23.743Z,101503.91
2023-04-16T17:20:50.247Z,101504.03
2023-04-16T17:23:18.120Z,101509.56
2023-04-16T17:25:44.659Z,101500.69
2023-04-16T17:28:11.174Z,101508.91
2023-04-16T17:30:37.686Z,101498.94
2023-04-16T17:33:04.661Z,101508.44
2023-04-16T17:35:31.450Z,101509.16
2023-04-16T17:37:57.986Z,101514.22
2023-04-16T17:40:25.899Z,101513.66
2023-04-16T17:42:52.481Z,101520.88
2023-04-16T17:45:19.027Z,101514.38
2023-04-16T17:47:45.567Z,101520.91
2023-04-16T17:50:12.180Z,101437.03
2023-04-16T17:52:38.938Z,101522.47
2023-04-16T17:55:06.393Z,101522.75
2023-04-16T17:57:34.251Z,101522.97
2023-04-16T18:00:00.802Z,101523.81
2023-04-16T18:02:27.489Z,101533.94
2023-04-16T18:04:54.540Z,101519.75
2023-04-16T18:07:21.378Z,101526.59
2023-04-16T18:09:47.883Z,101533.00
2023-04-16T18:12:14.817Z,101531.44
2023-04-16T18:14:42.690Z,101535.41
2023-04-16T18:17:09.203Z,101533.97
2023-04-16T18:19:35.725Z,101536.84
2023-04-16T18:22:02.323Z,101535.41
2023-04-16T18:24:28.838Z,101541.78
2023-04-16T18:26:55.432Z,101541.28
2023-04-16T18:29:24.792Z,101539.00
2023-04-16T18:31:54.548Z,101526.22
2023-04-16T18:34:22.217Z,101545.75
2023-04-16T18:36:48.769Z,101542.59
2023-04-16T18:39:15.292Z,101547.13
2023-04-16T18:41:41.813Z,101548.94
2023-04-16T18:44:08.271Z,101549.09
2023-04-16T18:46:34.803Z,101554.09
2023-04-16T18:49:02.749Z,101562.41
2023-04-16T18:51:29.282Z,101562.63
2023-04-16T18:53:55.795Z,101569.13
2023-04-16T18:56:22.316Z,101570.19
2023-04-16T18:58:48.795Z,101583.75
2023-04-16T19:01:15.344Z,101557.41
2023-04-16T19:03:42.091Z,101576.50
2023-04-16T19:06:10.008Z,101566.53
2023-04-16T19:08:36.583Z,101573.09
2023-04-16T19:11:03.292Z,101571.63
2023-04-16T19:13:30.659Z,101571.88
2023-04-16T19:15:57.621Z,101570.00
2023-04-16T19:18:24.275Z,101573.19
2023-04-16T19:20:50.867Z,101579.41
2023-04-16T19:23:18.759Z,101574.25
2023-04-16T19:25:45.266Z,101581.31
2023-04-16T19:28:11.744Z,101577.72
2023-04-16T19:30:38.239Z,101579.41
2023-04-16T19:33:04.801Z,101576.38
2023-04-16T19:35:31.711Z,101584.91
2023-04-16T19:37:58.287Z,101471.56
2023-04-16T19:40:26.284Z,101593.09
2023-04-16T19:42:52.837Z,101590.44
2023-04-16T19:45:19.316Z,101586.72
2023-04-16T19:47:45.886Z,101596.97
2023-04-16T19:50:12.408Z,101600.88
2023-04-16T19:52:39.118Z,101601.13
2023-04-16T19:55:06.874Z,101599.44
2023-04-16T19:57:34.873Z,101593.41
2023-04-16T20:00:01.486Z,101593.84
2023-04-16T20:02:30.900Z,101595.16
2023-04-16T20:04:57.528Z,101592.94
2023-04-16T20:07:24.060Z,101588.84
2023-04-16T20:09:50.578Z,101541.66
2023-04-16T20:12:17.115Z,101596.78
2023-04-16T20:14:45.026Z,101593.28
2023-04-16T20:17:11.631Z,101597.84
2023-04-16T20:19:38.185Z,101581.91
2023-04-16T20:22:04.872Z,101589.84
2023-04-16T20:24:31.491Z,101567.47
2023-04-16T20:26:58.020Z,101595.53
2023-04-16T20:29:24.544Z,101597.31
2023-04-16T20:31:52.489Z,101594.69
2023-04-16T20:34:19.007Z,101551.81
2023-04-16T20:36:45.515Z,101590.69
2023-04-16T20:39:12.623Z,101591.53
2023-04-16T20:41:39.368Z,101598.84
2023-04-16T20:44:05.897Z,101595.66
2023-04-16T20:46:32.471Z,101595.47
2023-04-16T20:49:00.401Z,101596.22
2023-04-16T20:51:26.977Z,101591.22
2023-04-16T20:53:53.703Z,101592.31
2023-04-16T20:56:20.219Z,101586.28
2023-04-16T20:58:46.760Z,101590.72
2023-04-16T21:01:13.396Z,101592.84
2023-04-16T21:03:40.221Z,101585.28
2023-04-16T21:06:08.220Z,101585.56
2023-04-16T21:08:35.290Z,101594.66
2023-04-16T21:11:01.817Z,101593.06
2023-04-16T21:13:28.319Z,101587.94
2023-04-16T21:15:54.929Z,101565.97
2023-04-16T21:18:21.492Z,101568.38
2023-04-16T21:20:48.038Z,101583.69
2023-04-16T21:23:15.954Z,101570.28
2023-04-16T21:25:42.459Z,101585.50
2023-04-16T21:28:08.976Z,101587.28
2023-04-16T21:30:35.558Z,101589.63
2023-04-16T21:33:02.113Z,101576.28
2023-04-16T21:35:31.238Z,101587.94
2023-04-16T21:37:57.806Z,101581.56
2023-04-16T21:40:25.689Z,101589.28
2023-04-16T21:42:52.218Z,101593.91
2023-04-16T21:45:18.873Z,101586.97
2023-04-16T21:47:45.403Z,101566.72
2023-04-16T21:50:12.661Z,101584.63
2023-04-16T21:52:39.155Z,101587.81
2023-04-16T21:55:07.628Z,101586.97
2023-04-16T21:57:35.493Z,101588.00
2023-04-16T22:00:02.346Z,101589.81
2023-04-16T22:02:30.946Z,101595.84
2023-04-16T22:04:57.614Z,101567.16
2023-04-16T22:07:24.223Z,101593.19
2023-04-16T22:09:50.736Z,101590.56
2023-04-16T22:12:17.240Z,101589.47
2023-04-16T22:14:55.858Z,101594.03
2023-04-16T22:17:28.838Z,101593.91
2023-04-16T22:19:55.376Z,101597.63
2023-04-16T22:22:21.991Z,101590.66
2023-04-16T22:24:48.626Z,101588.34
2023-04-16T22:27:15.221Z,101591.06
2023-04-16T22:29:41.781Z,101592.88
2023-04-16T22:32:09.836Z,101574.72
2023-04-16T22:34:36.406Z,101577.03
2023-04-16T22:37:03.012Z,101562.91
2023-04-16T22:39:29.601Z,101575.44
2023-04-16T22:41:56.182Z,101588.09
2023-04-16T22:44:22.729Z,101581.88
2023-04-16T22:46:49.568Z,101581.78
2023-04-16T22:49:17.610Z,101583.59
2023-04-16T22:51:44.399Z,101579.16
2023-04-16T22:54:12.053Z,101573.34
2023-04-16T22:56:40.747Z,101561.53
2023-04-16T22:59:07.654Z,101551.31
2023-04-16T23:01:34.481Z,101580.44
2023-04-16T23:04:01.033Z,101581.13
2023-04-16T23:06:28.947Z,101580.72
2023-04-16T23:08:55.478Z,101581.69
2023-04-16T23:11:22.460Z,101580.00
2023-04-16T23:13:48.959Z,101569.78
2023-04-16T23:16:15.571Z,101573.78
2023-04-16T23:18:42.140Z,101579.75
2023-04-16T23:21:08.733Z,101584.94
2023-04-16T23:23:36.660Z,101586.72
2023-04-16T23:26:03.680Z,101581.56
2023-04-16T23:28:30.179Z,101588.63
2023-04-16T23:30:56.826Z,101572.50
2023-04-16T23:33:23.442Z,101570.50
2023-04-16T23:35:49.982Z,101554.56
2023-04-16T23:38:16.500Z,101547.59
2023-04-16T23:40:44.520Z,101572.41
2023-04-16T23:43:11.011Z,101583.25
2023-04-16T23:45:37.715Z,101588.63
2023-04-16T23:48:04.483Z,101584.31
2023-04-16T23:50:31.133Z,101586.22
2023-04-16T23:52:57.708Z,101572.28
2023-04-16T23:55:24.708Z,101582.84
2023-04-16T23:57:52.582Z,101581.13
